Weather at Abraham Lincoln Capital Airport

Public forecast

Using degrees Fahrenheit for public forecast. Weather courtesy of forecast.io.

Current aviation weather report (METAR) for Abraham Lincoln Capital Airport

Report is more than 6 hours old.

2022/11/14 14:52 (retrieved 2 years ago)

KSPI 141452Z 13009KT 10SM CLR 01/M05 A3035 RMK AO2 SLP286 T00061050 50006

Aviation forecast (TAF) for Abraham Lincoln Capital Airport

Forecast is more than 12 hours old.

2023/02/22 18:24 Ammendment (retrieved 1 year ago)

TAF AMD KSPI 221823Z 2218/2318 05012KT 2SM SHRA VCTS OVC004CB TEMPO 2220/2223 1SM +TSRA OVC002CB FM222300 25008KT 6SM BR VCSH BKN015 FM230300 19010KT P6SM SCT015 FM231200 24017G28KT P6SM SCT015